Time;durP1;ratioP1;P1;durP2;ratioP2;P2;SDS_P1;SDS_P2;PMS_P1;PMS_P2;Temp;Humidity;BMP_temperature;BMP_pressure;BME280_temperature;BME280_humidity;BME280_pressure;Samples;Min_cycle;Max_cycle;Signal;HPM_P1;HPM_P2
2022/07/14 00:02:12;;;;;;;22.10;14.23;;;;;;;15.71;81.66;98525.22;5032462;28;20141;-64
2022/07/14 00:04:38;;;;;;;20.85;15.07;;;;;;;15.67;81.86;98522.28;5033352;28;20145;-64
2022/07/14 00:07:03;;;;;;;20.35;14.63;;;;;;;15.64;81.87;98523.66;5033653;28;20041;-64
2022/07/14 00:09:29;;;;;;;19.48;14.43;;;;;;;15.61;82.03;98526.13;5033732;28;20044;-64
2022/07/14 00:11:54;;;;;;;19.20;14.50;;;;;;;15.59;81.88;98525.63;5032190;28;20045;-63
2022/07/14 00:14:20;;;;;;;18.67;14.35;;;;;;;15.56;82.05;98523.53;5033998;28;20521;-63
2022/07/14 00:16:46;;;;;;;19.40;13.85;;;;;;;15.53;82.21;98522.25;5053310;28;20536;-63
2022/07/14 00:19:12;;;;;;;23.08;15.55;;;;;;;15.52;82.70;98520.63;5051861;28;20450;-64
2022/07/14 00:21:37;;;;;;;19.83;15.70;;;;;;;15.53;83.15;98516.09;5053153;28;20385;-64
2022/07/14 00:24:03;;;;;;;21.42;16.20;;;;;;;15.52;83.56;98517.97;5025532;28;20053;-65
2022/07/14 00:26:29;;;;;;;24.40;16.92;;;;;;;15.50;83.13;98514.00;5033086;28;20132;-64
2022/07/14 00:28:55;;;;;;;20.70;16.23;;;;;;;15.50;83.89;98512.16;5034246;28;20050;-65
2022/07/14 00:31:21;;;;;;;20.27;16.25;;;;;;;15.54;84.05;98513.13;5032026;28;20041;-65
2022/07/14 00:33:47;;;;;;;20.90;16.92;;;;;;;15.57;84.23;98517.13;5033391;28;20041;-65
2022/07/14 00:36:12;;;;;;;22.83;15.88;;;;;;;15.57;83.87;98514.44;5035279;28;20044;-65
2022/07/14 00:38:38;;;;;;;23.30;16.52;;;;;;;15.56;84.08;98504.81;5051859;28;20513;-64
2022/07/14 00:41:05;;;;;;;22.95;16.77;;;;;;;15.58;84.24;98500.78;5052890;28;20084;-64
2022/07/14 00:43:30;;;;;;;26.50;16.13;;;;;;;15.56;84.07;98505.63;5053071;28;20029;-65
2022/07/14 00:45:56;;;;;;;22.50;17.17;;;;;;;15.54;83.95;98507.81;5052563;28;20044;-65
2022/07/14 00:48:24;;;;;;;24.88;16.20;;;;;;;15.49;83.71;98505.19;5053108;28;20118;-64
2022/07/14 00:50:51;;;;;;;23.23;17.35;;;;;;;15.47;84.34;98507.38;5052761;28;20052;-64
2022/07/14 00:53:17;;;;;;;24.38;16.02;;;;;;;15.39;84.63;98505.38;5051458;28;20114;-63
2022/07/14 00:55:43;;;;;;;23.85;16.38;;;;;;;15.34;83.79;98510.78;5051906;28;20087;-64
2022/07/14 00:58:10;;;;;;;21.70;16.38;;;;;;;15.30;84.29;98494.56;5041790;28;20049;-65
2022/07/14 01:00:35;;;;;;;22.50;15.73;;;;;;;15.28;84.52;98491.38;5032426;28;20053;-63
2022/07/14 01:03:01;;;;;;;20.73;15.25;;;;;;;15.27;83.59;98494.34;5031291;28;20525;-64
2022/07/14 01:05:27;;;;;;;25.27;15.88;;;;;;;15.28;83.47;98487.91;5031124;28;20081;-63
2022/07/14 01:07:54;;;;;;;21.45;15.63;;;;;;;15.28;84.09;98483.34;5032710;28;20492;-64
2022/07/14 01:10:20;;;;;;;24.98;15.93;;;;;;;15.30;84.25;98478.53;5032558;28;20060;-64
2022/07/14 01:12:47;;;;;;;22.85;16.23;;;;;;;15.32;84.40;98483.56;5032631;28;20053;-64
2022/07/14 01:15:14;;;;;;;25.90;17.08;;;;;;;15.35;84.21;98474.97;5050382;28;20063;-63
2022/07/14 01:17:40;;;;;;;27.40;18.33;;;;;;;15.40;84.62;98481.03;5052135;28;20147;-64
2022/07/14 01:20:08;;;;;;;26.42;17.88;;;;;;;15.49;84.63;98480.38;5052563;28;20040;-64
2022/07/14 01:22:34;;;;;;;26.75;17.77;;;;;;;15.62;84.16;98474.31;5043460;28;20071;-65
2022/07/14 01:25:01;;;;;;;27.30;16.88;;;;;;;15.86;83.24;98472.31;5031876;28;20187;-63
2022/07/14 01:27:28;;;;;;;25.70;16.95;;;;;;;16.11;81.73;98460.34;5032336;28;20518;-64
2022/07/14 01:29:54;;;;;;;35.78;16.10;;;;;;;16.37;80.24;98465.22;5030717;28;20049;-64
2022/07/14 01:32:21;;;;;;;23.15;15.40;;;;;;;16.61;79.31;98456.19;5030824;28;20115;-63
2022/07/14 01:34:47;;;;;;;20.98;15.32;;;;;;;16.81;78.49;98458.44;5048525;28;20048;-64
2022/07/14 01:37:12;;;;;;;23.02;16.25;;;;;;;16.97;77.36;98461.56;5050651;28;20041;-63
2022/07/14 01:39:38;;;;;;;18.40;14.57;;;;;;;16.97;76.81;98458.91;5034387;28;20049;-63
2022/07/14 01:42:05;;;;;;;24.27;16.25;;;;;;;16.88;77.35;98460.72;5030832;28;20045;-64
2022/07/14 01:44:31;;;;;;;24.83;15.48;;;;;;;16.77;77.63;98462.84;5030350;28;20518;-63
2022/07/14 01:46:56;;;;;;;25.05;16.75;;;;;;;16.70;77.96;98460.50;5031795;28;20045;-65
2022/07/14 01:49:22;;;;;;;23.58;16.63;;;;;;;16.66;78.24;98464.09;5014052;28;20075;-63
2022/07/14 01:51:48;;;;;;;23.42;16.67;;;;;;;16.57;78.63;98472.81;5013961;28;20045;-64
2022/07/14 01:54:17;;;;;;;28.00;16.98;;;;;;;16.54;78.51;98468.06;5029875;28;20033;-63
2022/07/14 01:56:43;;;;;;;28.27;17.05;;;;;;;16.50;78.73;98466.28;5031723;28;20076;-63
2022/07/14 01:59:12;;;;;;;29.92;17.88;;;;;;;16.51;78.61;98466.00;5030266;28;20049;-64
2022/07/14 02:01:41;;;;;;;28.20;16.95;;;;;;;16.53;78.59;98455.81;5000948;28;20084;-64
2022/07/14 02:04:27;;;;;;;27.35;16.30;;;;;;;16.59;78.19;98461.84;5029978;28;20072;-63
2022/07/14 02:06:55;;;;;;;23.33;14.98;;;;;;;16.64;77.79;98453.69;5013877;28;20056;-63
2022/07/14 02:12:29;;;;;;;23.83;16.10;;;;;;;16.74;77.49;98447.34;5001071;28;20096;-63
2022/07/14 02:14:55;;;;;;;22.00;16.90;;;;;;;16.80;77.45;98446.16;5029711;28;20067;-64
2022/07/14 02:17:21;;;;;;;21.92;15.27;;;;;;;16.87;77.34;98453.78;5031329;28;20048;-64
2022/07/14 02:19:47;;;;;;;22.73;15.65;;;;;;;16.91;76.79;98447.53;5013903;28;20124;-63
2022/07/14 02:22:13;;;;;;;25.90;16.17;;;;;;;16.95;76.47;98459.22;5025085;28;20052;-63
2022/07/14 02:24:38;;;;;;;20.85;16.10;;;;;;;16.97;76.18;98446.34;5029759;28;20116;-63
2022/07/14 02:27:04;;;;;;;22.85;15.90;;;;;;;17.05;75.89;98454.72;5013667;28;20037;-63
2022/07/14 02:29:30;;;;;;;22.35;16.40;;;;;;;17.14;75.21;98452.91;5029886;28;20052;-63
2022/07/14 02:31:56;;;;;;;29.92;17.63;;;;;;;17.21;75.17;98450.63;5035600;28;20056;-62
2022/07/14 02:34:22;;;;;;;26.05;18.70;;;;;;;17.31;74.53;98453.03;5051246;28;20045;-63
2022/07/14 02:36:51;;;;;;;30.33;17.40;;;;;;;17.36;74.24;98450.25;5049828;28;20502;-63
2022/07/14 02:39:17;;;;;;;24.85;16.40;;;;;;;17.42;74.02;98458.97;5017184;28;20128;-62
2022/07/14 02:41:43;;;;;;;22.10;14.32;;;;;;;17.64;73.03;98469.66;5050905;28;20549;-63
2022/07/14 02:44:11;;;;;;;19.52;13.60;;;;;;;17.76;72.09;98508.50;5049594;28;20076;-64
2022/07/14 02:46:39;;;;;;;27.52;14.75;;;;;;;17.72;72.69;98513.69;5033393;28;20124;-63
2022/07/14 02:49:05;;;;;;;21.50;14.52;;;;;;;17.66;72.36;98507.66;5049704;28;20127;-63
2022/07/14 02:51:33;;;;;;;26.67;13.80;;;;;;;17.66;71.49;98498.81;5012878;28;20411;-64
2022/07/14 02:53:59;;;;;;;28.48;13.93;;;;;;;17.70;70.89;98497.13;5029608;28;20097;-63
2022/07/14 02:56:26;;;;;;;19.92;13.15;;;;;;;17.80;70.36;98512.19;5034969;28;20192;-64
2022/07/14 02:58:52;;;;;;;17.90;10.70;;;;;;;17.91;68.18;98502.78;5049556;28;20041;-63
2022/07/14 03:01:18;;;;;;;16.67;10.63;;;;;;;18.03;67.44;98496.84;5033140;28;20530;-64
2022/07/14 03:03:43;;;;;;;18.20;10.25;;;;;;;18.08;66.60;98497.50;5049612;28;20080;-64
2022/07/14 03:06:15;;;;;;;14.45;9.82;;;;;;;18.17;65.76;98516.34;5049708;28;20041;-62
2022/07/14 03:08:43;;;;;;;14.23;8.68;;;;;;;18.28;65.19;98522.22;5033327;28;20084;-64
2022/07/14 03:11:10;;;;;;;14.63;9.02;;;;;;;18.35;64.40;98517.19;5044399;28;20427;-64
2022/07/14 03:13:37;;;;;;;17.38;8.45;;;;;;;18.36;63.38;98508.84;5029922;28;20075;-61
2022/07/14 03:16:06;;;;;;;11.60;6.50;;;;;;;18.43;60.56;98505.72;4996659;28;20091;-62
2022/07/14 03:18:32;;;;;;;10.55;6.50;;;;;;;18.50;60.47;98502.56;5013598;28;20079;-63
2022/07/14 03:20:58;;;;;;;9.30;5.30;;;;;;;18.50;59.23;98497.19;5029771;28;20090;-64
2022/07/14 03:23:25;;;;;;;13.32;5.47;;;;;;;18.53;57.88;98493.91;5013072;28;20605;-63
2022/07/14 03:25:55;;;;;;;;;;;;;;;18.57;57.73;98492.97;5015336;28;20052;-62
2022/07/14 03:28:21;;;;;;;12.75;4.85;;;;;;;18.55;57.20;98494.38;5033243;28;19925;-63
2022/07/14 03:30:52;;;;;;;10.10;4.75;;;;;;;18.64;57.45;98497.88;5032612;28;20128;-64
2022/07/14 03:33:18;;;;;;;5.32;4.20;;;;;;;18.63;56.75;98487.47;5016562;28;20125;-63
2022/07/14 03:35:45;;;;;;;8.85;4.55;;;;;;;18.79;56.88;98494.00;5026963;28;20045;-63
2022/07/14 03:38:12;;;;;;;7.03;3.75;;;;;;;18.84;55.84;98493.84;5033051;28;20064;-62
2022/07/14 03:40:37;;;;;;;6.97;3.90;;;;;;;18.91;56.31;98490.69;5016621;28;20072;-64
2022/07/14 03:43:03;;;;;;;5.75;3.60;;;;;;;18.86;55.92;98483.59;5032876;28;20447;-64
2022/07/14 03:45:30;;;;;;;5.75;3.58;;;;;;;18.86;55.93;98482.81;5032739;28;20037;-63
2022/07/14 03:47:57;;;;;;;7.00;3.38;;;;;;;18.87;55.43;98479.00;5032696;28;20045;-63
2022/07/14 03:50:22;;;;;;;4.47;3.60;;;;;;;18.83;55.62;98468.13;5015984;28;20565;-64
2022/07/14 03:52:48;;;;;;;5.18;3.60;;;;;;;18.88;55.97;98472.53;5032717;28;20049;-64
2022/07/14 03:55:14;;;;;;;4.15;3.15;;;;;;;18.88;55.73;98467.16;5015952;28;20041;-64
2022/07/14 03:57:40;;;;;;;4.57;3.00;;;;;;;18.87;55.29;98466.38;5032547;28;20037;-63
2022/07/14 04:00:06;;;;;;;4.22;3.08;;;;;;;18.83;54.92;98454.69;5026464;28;20051;-64
2022/07/14 04:02:42;;;;;;;4.13;3.50;;;;;;;18.84;55.16;98454.38;5036318;28;20033;-64
2022/07/14 04:05:10;;;;;;;3.95;2.75;;;;;;;18.86;55.46;98455.97;5052049;28;20494;-64
2022/07/14 04:07:37;;;;;;;4.60;3.10;;;;;;;18.84;55.15;98459.72;5051968;28;20052;-63
2022/07/14 04:10:06;;;;;;;6.03;2.80;;;;;;;18.81;57.53;98448.84;5044406;28;20503;-66
2022/07/14 04:12:32;;;;;;;4.72;3.50;;;;;;;18.84;59.50;98434.78;5032398;28;20053;-63
2022/07/14 04:14:58;;;;;;;4.78;3.00;;;;;;;18.80;57.88;98420.41;5015693;28;20496;-62
2022/07/14 04:17:25;;;;;;;5.70;2.92;;;;;;;18.69;58.17;98409.16;5032229;28;20045;-63
2022/07/14 04:19:51;;;;;;;3.90;2.90;;;;;;;18.63;56.97;98418.47;5032055;28;20037;-64
2022/07/14 04:22:18;;;;;;;4.53;3.00;;;;;;;18.61;58.26;98424.13;5032100;28;20123;-64
2022/07/14 04:24:44;;;;;;;5.53;3.20;;;;;;;18.64;57.83;98417.34;5031900;28;20045;-63
2022/07/14 04:27:10;;;;;;;6.75;3.17;;;;;;;18.65;58.35;98410.91;5031633;28;20045;-64
2022/07/14 04:29:35;;;;;;;4.03;3.10;;;;;;;18.70;59.75;98412.63;5039385;28;20045;-64
2022/07/14 04:32:02;;;;;;;5.82;3.15;;;;;;;18.76;60.21;98404.13;5051923;28;20041;-64
2022/07/14 04:34:27;;;;;;;5.18;3.78;;;;;;;18.75;61.29;98410.63;5018132;28;20124;-63
2022/07/14 04:36:54;;;;;;;7.85;4.13;;;;;;;18.79;61.68;98403.50;5051478;28;20139;-64
2022/07/14 04:39:20;;;;;;;6.38;3.92;;;;;;;18.83;60.04;98409.06;5051591;28;20052;-62
2022/07/14 04:41:46;;;;;;;5.75;4.20;;;;;;;18.87;61.74;98407.31;5049574;28;20044;-61
2022/07/14 04:44:12;;;;;;;14.50;9.98;;;;;;;18.87;64.50;98401.16;5044315;28;20135;-64
2022/07/14 04:46:42;;;;;;;;;;;;;;;18.82;66.06;98404.78;5032160;28;20049;-63
2022/07/14 04:52:02;;;;;;;16.25;13.60;;;;;;;18.65;62.81;98402.03;5034772;28;20045;-63
2022/07/14 04:54:33;;;;;;;16.63;14.63;;;;;;;18.68;63.98;98406.78;5020763;28;20158;-63
2022/07/14 04:57:12;;;;;;;21.05;17.30;;;;;;;18.70;64.65;98401.91;5035607;28;20056;-63
2022/07/14 04:59:43;;;;;;;16.40;10.57;;;;;;;18.76;63.22;98389.94;5050289;28;20053;-63
2022/07/14 05:02:09;;;;;;;14.45;11.45;;;;;;;18.86;63.91;98389.63;5052404;28;20041;-65
2022/07/14 05:04:36;;;;;;;14.57;13.07;;;;;;;18.95;64.25;98382.34;5049317;28;20126;-61
2022/07/14 05:07:04;;;;;;;8.70;5.70;;;;;;;19.03;61.43;98378.88;5051023;28;20041;-64
2022/07/14 05:09:33;;;;;;;6.45;4.55;;;;;;;19.16;60.48;98373.66;5029719;28;20494;-65
2022/07/14 05:12:00;;;;;;;7.78;4.80;;;;;;;19.22;62.30;98375.84;5030770;28;20557;-65
2022/07/14 05:14:27;;;;;;;5.03;4.40;;;;;;;19.11;62.70;98374.59;5043939;28;20041;-65
2022/07/14 05:16:53;;;;;;;7.53;4.78;;;;;;;19.03;63.63;98370.81;5050526;28;20045;-64
2022/07/14 05:19:19;;;;;;;10.48;5.63;;;;;;;19.04;64.03;98360.88;5013186;28;20052;-64
2022/07/14 05:21:46;;;;;;;6.80;5.82;;;;;;;19.01;63.62;98364.19;5029400;28;20053;-63
2022/07/14 05:24:12;;;;;;;5.60;4.40;;;;;;;19.02;63.24;98360.38;5029260;28;20450;-63
2022/07/14 05:26:38;;;;;;;8.57;4.40;;;;;;;19.14;63.13;98365.09;5028595;28;20127;-62
2022/07/14 05:29:05;;;;;;;6.32;4.57;;;;;;;19.43;62.84;98375.94;5039928;28;20512;-63
2022/07/14 05:31:31;;;;;;;5.93;4.80;;;;;;;19.57;61.43;98373.06;5048377;28;20288;-64
2022/07/14 05:33:57;;;;;;;8.10;4.72;;;;;;;19.69;60.93;98367.84;5048718;28;20080;-64
2022/07/14 05:36:24;;;;;;;6.47;5.00;;;;;;;19.73;60.96;98370.66;5048520;28;20071;-64
2022/07/14 05:38:51;;;;;;;7.45;5.07;;;;;;;19.86;60.96;98376.97;5047596;28;20040;-62
2022/07/14 05:41:19;;;;;;;8.40;5.18;;;;;;;20.05;58.72;98376.53;5049495;28;20037;-64
2022/07/14 05:43:46;;;;;;;7.47;4.85;;;;;;;20.15;58.60;98374.28;5032197;28;20565;-63
2022/07/14 05:46:13;;;;;;;5.35;4.43;;;;;;;20.27;57.54;98368.19;5023528;28;20519;-65
2022/07/14 05:48:41;;;;;;;8.50;4.50;;;;;;;20.49;57.26;98358.25;5038430;28;20049;-64
2022/07/14 05:51:14;;;;;;;10.10;4.20;;;;;;;20.83;56.70;98357.22;5046572;28;20135;-64
2022/07/14 05:53:43;;;;;;;6.93;4.43;;;;;;;21.12;55.21;98353.63;5045909;28;20048;-63
2022/07/14 05:56:13;;;;;;;8.45;4.47;;;;;;;21.21;54.30;98348.94;5010874;28;20037;-64
2022/07/14 05:58:40;;;;;;;6.90;4.03;;;;;;;21.28;54.61;98353.78;5012057;28;20060;-65
2022/07/14 06:01:07;;;;;;;7.97;4.53;;;;;;;21.48;54.02;98347.56;5027522;28;20493;-64
2022/07/14 06:03:34;;;;;;;13.32;5.30;;;;;;;21.65;54.24;98348.47;5027494;28;20062;-64
2022/07/14 06:06:05;;;;;;;7.13;4.72;;;;;;;21.83;54.15;98347.16;5028218;28;20582;-64
2022/07/14 06:08:30;;;;;;;18.38;6.13;;;;;;;22.02;53.50;98341.19;5029043;28;20065;-64
2022/07/14 06:10:57;;;;;;;9.75;4.80;;;;;;;22.02;53.66;98341.19;5035197;28;20033;-63
2022/07/14 06:13:24;;;;;;;7.80;4.45;;;;;;;22.11;52.59;98330.25;5031411;28;20048;-64
2022/07/14 06:15:50;;;;;;;12.52;4.60;;;;;;;22.15;51.87;98333.88;5034656;28;20486;-62
2022/07/14 06:18:16;;;;;;;7.72;4.40;;;;;;;22.29;51.54;98328.13;5027494;28;20096;-62
2022/07/14 06:20:42;;;;;;;5.70;4.30;;;;;;;22.34;51.21;98325.97;5036976;28;20475;-63
2022/07/14 06:23:09;;;;;;;7.38;4.32;;;;;;;22.55;51.07;98325.81;5033843;28;20059;-63
2022/07/14 06:25:37;;;;;;;6.50;3.95;;;;;;;22.75;50.35;98325.97;5062931;28;20124;-65
2022/07/14 06:28:04;;;;;;;8.70;4.05;;;;;;;22.92;49.51;98316.81;5030676;28;20077;-65
2022/07/14 06:30:30;;;;;;;10.43;3.85;;;;;;;23.06;48.44;98323.41;5045808;28;20040;-64
2022/07/14 06:32:57;;;;;;;8.23;4.18;;;;;;;23.11;48.19;98323.13;5046301;28;20453;-65
2022/07/14 06:35:23;;;;;;;6.88;4.30;;;;;;;23.12;48.56;98323.94;5048609;28;20521;-65
2022/07/14 06:37:54;;;;;;;5.35;3.97;;;;;;;23.05;48.19;98321.81;5046583;28;20114;-64
2022/07/14 06:40:21;;;;;;;6.22;4.10;;;;;;;23.01;48.22;98317.47;5029936;28;20038;-64
2022/07/14 06:42:48;;;;;;;8.48;4.05;;;;;;;22.86;49.78;98322.44;5017953;28;20041;-64
2022/07/14 06:45:34;;;;;;;8.05;4.20;;;;;;;22.58;49.83;98316.25;5030449;28;20186;-65
2022/07/14 06:47:59;;;;;;;8.85;3.58;;;;;;;22.34;49.10;98309.78;5028390;28;20128;-65
2022/07/14 06:50:25;;;;;;;9.65;4.38;;;;;;;22.21;48.76;98310.94;5047507;28;20190;-65
2022/07/14 06:52:53;;;;;;;8.73;3.97;;;;;;;22.21;48.86;98319.06;5047509;28;20041;-64
2022/07/14 06:55:18;;;;;;;7.85;4.38;;;;;;;22.27;49.61;98316.91;5046156;28;20506;-65
2022/07/14 06:57:44;;;;;;;7.68;4.68;;;;;;;22.38;49.33;98309.88;5026540;28;20080;-64
2022/07/14 07:00:10;;;;;;;6.65;4.50;;;;;;;22.65;49.76;98322.66;5013041;28;20033;-65
2022/07/14 07:02:36;;;;;;;10.63;4.88;;;;;;;22.95;48.32;98314.22;5034870;28;20075;-66
2022/07/14 07:07:51;;;;;;;8.80;4.78;;;;;;;23.61;48.14;98309.31;5035299;28;20037;-62
2022/07/14 07:10:18;;;;;;;6.88;4.88;;;;;;;23.62;47.40;98311.66;5033533;28;20037;-62
2022/07/14 07:12:44;;;;;;;8.13;4.88;;;;;;;23.77;46.96;98308.19;5031467;28;20124;-60
2022/07/14 07:15:10;;;;;;;8.07;5.10;;;;;;;24.21;46.07;98308.03;5044331;28;20044;-66
2022/07/14 07:17:36;;;;;;;12.07;5.70;;;;;;;24.67;45.42;98302.78;5053189;28;20455;-64
2022/07/14 07:20:02;;;;;;;8.73;5.47;;;;;;;24.89;44.17;98303.22;5050827;28;20155;-65
2022/07/14 07:22:29;;;;;;;8.88;5.45;;;;;;;24.79;43.38;98301.06;5053448;28;20452;-64
2022/07/14 07:24:56;;;;;;;9.10;4.82;;;;;;;24.48;41.68;98294.66;5052330;28;20048;-66
2022/07/14 07:27:22;;;;;;;11.55;5.18;;;;;;;24.32;41.41;98291.19;5034686;28;20099;-64
2022/07/14 07:29:48;;;;;;;8.30;4.78;;;;;;;24.34;40.92;98295.13;5016858;28;20145;-67
2022/07/14 07:32:14;;;;;;;9.27;4.50;;;;;;;24.24;41.45;98293.00;5015607;28;20053;-64
2022/07/14 07:34:39;;;;;;;5.97;4.47;;;;;;;24.20;40.77;98298.31;5033058;28;20049;-65
2022/07/14 07:37:05;;;;;;;6.38;4.25;;;;;;;24.21;40.60;98294.47;5033466;28;20095;-64
2022/07/14 07:39:31;;;;;;;10.23;4.20;;;;;;;24.42;40.25;98287.94;5053681;28;20040;-65
2022/07/14 07:42:01;;;;;;;8.50;3.92;;;;;;;24.58;39.44;98291.38;5053779;28;20175;-66
2022/07/14 07:44:29;;;;;;;13.75;5.07;;;;;;;24.60;39.48;98304.59;5052282;28;20106;-65
2022/07/14 07:46:55;;;;;;;11.02;4.70;;;;;;;24.53;39.47;98316.06;5051883;28;20391;-64
2022/07/14 07:49:20;;;;;;;10.52;4.88;;;;;;;24.55;39.50;98311.06;5049390;28;20048;-65
2022/07/14 07:51:46;;;;;;;12.73;5.13;;;;;;;24.64;40.99;98314.34;5052703;28;20418;-66
2022/07/14 07:54:11;;;;;;;9.90;5.13;;;;;;;24.75;41.54;98316.50;5053158;28;20048;-67
2022/07/14 07:56:37;;;;;;;5.97;3.65;;;;;;;24.63;39.30;98320.91;5052764;28;20082;-66
2022/07/14 07:59:03;;;;;;;10.27;3.20;;;;;;;24.43;39.40;98322.81;5052633;28;20037;-66
2022/07/14 08:01:29;;;;;;;11.23;3.40;;;;;;;24.13;39.62;98327.94;5050708;28;20045;-65
2022/07/14 08:03:54;;;;;;;6.78;3.17;;;;;;;23.81;40.12;98319.09;5034684;28;20514;-65
2022/07/14 08:06:20;;;;;;;10.77;3.58;;;;;;;23.65;41.65;98331.81;5019185;28;20037;-67
2022/07/14 08:08:46;;;;;;;6.45;3.30;;;;;;;23.37;42.09;98340.00;5032623;28;20045;-63
2022/07/14 08:11:12;;;;;;;7.93;3.35;;;;;;;23.04;45.20;98339.16;5033349;28;20450;-64
2022/07/14 08:13:38;;;;;;;7.88;2.63;;;;;;;22.72;45.19;98305.84;5046123;28;20489;-65
2022/07/14 08:16:04;;;;;;;3.13;2.70;;;;;;;22.21;48.12;98290.13;5051712;28;20079;-68
2022/07/14 08:18:30;;;;;;;6.47;3.50;;;;;;;21.73;47.43;98274.75;5035084;28;20049;-65
2022/07/14 08:20:56;;;;;;;7.00;3.58;;;;;;;21.29;48.97;98264.50;5053018;28;20048;-66
2022/07/14 08:23:22;;;;;;;9.35;4.68;;;;;;;20.89;49.47;98234.69;5053170;28;20056;-65
2022/07/14 08:25:47;;;;;;;5.60;5.05;;;;;;;20.56;50.65;98232.81;5035075;28;20044;-65
2022/07/14 08:28:13;;;;;;;8.50;7.60;;;;;;;20.48;52.03;98228.25;5052700;28;20479;-66
2022/07/14 08:30:39;;;;;;;6.07;5.47;;;;;;;20.46;51.71;98224.31;5052510;28;20045;-67
2022/07/14 08:33:05;;;;;;;8.82;5.05;;;;;;;20.50;50.92;98217.13;5051383;28;20041;-68
2022/07/14 08:35:34;;;;;;;6.90;5.10;;;;;;;20.60;50.49;98228.31;5051581;28;20032;-68
2022/07/14 08:37:59;;;;;;;6.10;4.82;;;;;;;20.92;50.85;98219.78;5052236;28;20434;-66
2022/07/14 08:40:26;;;;;;;7.53;4.63;;;;;;;21.32;50.19;98219.91;5051944;28;20045;-68
2022/07/14 08:42:53;;;;;;;4.43;3.33;;;;;;;21.67;48.89;98222.19;5051049;28;20509;-66
2022/07/14 08:45:22;;;;;;;2.95;2.75;;;;;;;21.80;47.30;98214.88;5051556;28;20109;-67
2022/07/14 08:47:48;;;;;;;4.20;2.80;;;;;;;21.95;47.70;98216.88;5049522;28;20045;-68
2022/07/14 08:50:19;;;;;;;4.25;3.25;;;;;;;22.13;48.20;98211.97;5050797;28;20040;-68
2022/07/14 08:52:46;;;;;;;3.63;2.85;;;;;;;22.44;49.67;98217.53;5033630;28;20044;-67
2022/07/14 08:55:13;;;;;;;4.38;3.30;;;;;;;22.77;48.35;98212.97;5050967;28;20513;-67
2022/07/14 08:57:40;;;;;;;4.47;3.22;;;;;;;22.84;47.57;98210.44;5051905;28;20506;-65
2022/07/14 09:00:12;;;;;;;4.68;3.20;;;;;;;22.73;47.57;98210.16;5051807;28;20045;-68
2022/07/14 09:02:39;;;;;;;8.70;3.70;;;;;;;22.73;47.91;98206.69;5033554;28;20049;-65
2022/07/14 09:05:05;;;;;;;6.63;3.45;;;;;;;22.84;48.92;98210.44;5031367;28;20384;-66
2022/07/14 09:07:31;;;;;;;8.18;3.80;;;;;;;22.98;48.61;98205.44;5031780;28;20046;-64
2022/07/14 09:10:06;;;;;;;7.03;3.83;;;;;;;23.10;48.54;98191.06;5032186;28;20605;-65
2022/07/14 09:12:33;;;;;;;4.22;3.63;;;;;;;22.98;46.25;98193.84;5031846;28;20042;-66
2022/07/14 09:17:55;;;;;;;7.10;3.85;;;;;;;23.13;45.87;98184.94;5031426;28;20451;-66
2022/07/14 09:20:23;;;;;;;8.48;4.05;;;;;;;23.54;45.24;98182.81;5030460;28;20103;-65
2022/07/14 09:22:54;;;;;;;7.32;4.38;;;;;;;23.76;45.37;98165.13;5013775;28;20499;-64
2022/07/14 09:25:20;;;;;;;7.80;3.90;;;;;;;23.73;45.05;98163.13;5029946;28;20056;-64
2022/07/14 09:27:47;;;;;;;7.63;3.95;;;;;;;23.69;44.37;98162.25;5031484;28;20049;-64
2022/07/14 09:30:13;;;;;;;7.90;4.40;;;;;;;23.69;46.36;98157.63;5031557;28;20044;-65
2022/07/14 09:32:57;;;;;;;4.75;4.25;;;;;;;23.79;46.07;98157.09;5029753;28;20507;-66
2022/07/14 09:35:25;;;;;;;8.80;4.65;;;;;;;23.87;45.41;98155.31;5031437;28;20113;-65
2022/07/14 09:37:52;;;;;;;8.25;4.45;;;;;;;23.89;45.23;98142.22;5030271;28;20045;-66
2022/07/14 09:40:30;;;;;;;10.48;4.85;;;;;;;23.96;45.80;98145.06;5034787;28;20038;-67
2022/07/14 09:43:03;;;;;;;6.95;4.53;;;;;;;24.11;43.62;98142.63;5048832;28;20529;-66
2022/07/14 09:45:36;;;;;;;8.93;4.85;;;;;;;24.28;42.85;98144.13;5049520;28;20041;-67
2022/07/14 09:48:11;;;;;;;7.25;5.05;;;;;;;24.45;41.92;98146.41;5047811;28;20049;-67
2022/07/14 09:51:01;;;;;;;6.07;4.80;;;;;;;24.55;41.54;98139.63;5046764;28;20485;-67
2022/07/14 09:53:28;;;;;;;7.50;4.55;;;;;;;24.64;41.15;98134.75;5048008;28;20041;-65
2022/07/14 09:55:58;;;;;;;7.20;4.60;;;;;;;24.67;40.54;98134.78;5048307;28;20482;-66
2022/07/14 09:58:33;;;;;;;8.75;4.78;;;;;;;24.79;39.99;98131.13;5032108;28;20056;-68
2022/07/14 10:01:05;;;;;;;8.93;4.32;;;;;;;24.84;39.63;98136.25;5048923;28;20053;-68
2022/07/14 10:03:33;;;;;;;7.30;4.82;;;;;;;24.99;39.77;98128.34;5049293;28;20151;-67
2022/07/14 10:06:00;;;;;;;10.23;4.82;;;;;;;25.10;38.62;98124.66;5046877;28;20455;-66
2022/07/14 10:08:28;;;;;;;10.25;4.75;;;;;;;25.14;38.57;98125.50;5050339;28;20219;-66
2022/07/14 10:10:55;;;;;;;7.45;4.93;;;;;;;25.11;39.24;98123.50;5047584;28;20056;-66
2022/07/14 10:13:21;;;;;;;8.93;5.00;;;;;;;25.27;38.60;98117.97;5031028;28;20408;-67
2022/07/14 10:15:55;;;;;;;10.93;5.45;;;;;;;25.23;38.61;98119.03;5032319;28;20049;-64
2022/07/14 10:18:22;;;;;;;13.40;5.47;;;;;;;25.21;38.64;98114.00;5050649;28;20048;-67
2022/07/14 10:20:58;;;;;;;10.45;5.32;;;;;;;25.33;38.46;98111.06;5047525;28;20044;-69
2022/07/14 10:23:25;;;;;;;16.23;5.72;;;;;;;25.33;39.27;98116.50;5048227;28;20124;-65
2022/07/14 10:26:16;;;;;;;8.32;5.35;;;;;;;25.13;39.21;98115.00;5045235;28;20493;-64
2022/07/14 10:28:57;;;;;;;9.20;5.07;;;;;;;24.85;39.27;98109.91;5015800;28;20029;-65
2022/07/14 10:32:04;;;;;;;10.25;5.32;;;;;;;24.62;40.64;98112.63;5010005;28;20092;-64
2022/07/14 10:34:42;;;;;;;12.13;5.43;;;;;;;24.44;40.29;98105.00;5029310;28;20080;-66
2022/07/14 10:37:27;;;;;;;9.85;5.03;;;;;;;24.34;40.62;98102.84;5015496;28;20064;-65
2022/07/14 10:40:08;;;;;;;17.17;5.38;;;;;;;24.39;41.29;98104.50;5033346;28;20465;-66
2022/07/14 10:43:12;;;;;;;8.30;5.32;;;;;;;24.54;41.01;98105.56;5031622;28;20522;-65
2022/07/14 10:45:52;;;;;;;12.55;5.60;;;;;;;24.72;40.54;98103.91;5031144;28;20045;-64
2022/07/14 10:48:31;;;;;;;7.47;5.70;;;;;;;24.95;40.10;98095.75;5032558;28;20052;-65
2022/07/14 10:51:16;;;;;;;10.35;6.20;;;;;;;25.16;40.26;98100.75;5051862;28;20494;-65
2022/07/14 10:54:05;;;;;;;8.93;5.65;;;;;;;25.42;39.19;98094.53;5054208;28;20499;-64
2022/07/14 10:56:31;;;;;;;8.65;4.95;;;;;;;25.61;38.42;98096.31;5052896;28;20118;-65
2022/07/14 10:59:24;;;;;;;10.27;5.68;;;;;;;25.63;38.29;98091.31;5053425;28;20425;-65
2022/07/14 11:02:12;;;;;;;7.18;4.82;;;;;;;25.45;38.66;98084.88;5053628;28;20048;-64
2022/07/14 11:05:02;;;;;;;11.95;5.32;;;;;;;25.48;39.25;98090.34;5053862;28;20484;-64
2022/07/14 11:07:52;;;;;;;8.90;4.80;;;;;;;25.36;39.65;98080.50;5053702;28;20041;-63
2022/07/14 11:10:21;;;;;;;16.13;5.78;;;;;;;25.22;39.88;98082.25;5034367;28;20073;-63
2022/07/14 11:13:04;;;;;;;11.45;5.82;;;;;;;25.10;40.28;98078.56;5037315;28;20045;-65
2022/07/14 11:16:02;;;;;;;8.60;5.45;;;;;;;25.09;40.25;98090.56;5033873;28;20132;-65
2022/07/14 11:18:35;;;;;;;12.57;6.05;;;;;;;25.05;41.29;98089.72;5034353;28;20053;-64
2022/07/14 11:21:11;;;;;;;12.00;5.57;;;;;;;25.00;41.52;98087.34;5033993;28;20190;-64
2022/07/14 11:23:52;;;;;;;8.90;5.40;;;;;;;25.00;42.28;98090.03;5034347;28;20132;-64
2022/07/14 11:26:40;;;;;;;6.03;4.10;;;;;;;25.03;40.39;98089.31;5022994;28;20044;-65
2022/07/14 11:29:08;;;;;;;8.50;4.28;;;;;;;25.21;39.85;98088.78;5053782;28;20131;-66
2022/07/14 11:31:52;;;;;;;6.63;3.88;;;;;;;25.54;37.92;98085.38;5015882;28;20487;-66
2022/07/14 11:37:13;;;;;;;8.32;3.97;;;;;;;25.80;38.22;98081.81;5032092;28;20045;-65
2022/07/14 11:39:40;;;;;;;9.63;4.05;;;;;;;25.98;37.93;98088.25;5053508;28;20041;-65
2022/07/14 11:42:11;;;;;;;6.53;3.90;;;;;;;26.13;35.56;98088.41;5054001;28;20414;-66
2022/07/14 11:44:40;;;;;;;9.48;3.67;;;;;;;25.97;35.28;98102.19;5024288;28;20042;-64
2022/07/14 13:44:30;;;;;;;;;;;;;;;23.63;44.93;97977.03;4794910;29;20122;-63
2022/07/14 13:46:57;;;;;;;7.43;4.15;;;;;;;23.57;44.16;97969.19;4801889;29;19972;-63
2022/07/14 13:49:23;;;;;;;4.72;4.32;;;;;;;23.53;42.72;97960.25;4784506;30;20402;-63